createdAt,value
2022-12-22T00:02:02.490Z,636.92
2022-12-22T00:04:48.599Z,606.38
2022-12-22T00:07:34.754Z,619.10
2022-12-22T00:10:21.030Z,447.58
2022-12-22T00:13:06.956Z,550.75
2022-12-22T00:15:54.663Z,647.40
2022-12-22T00:18:41.111Z,636.78
2022-12-22T00:21:29.284Z,649.30
2022-12-22T00:24:15.359Z,645.97
2022-12-22T00:27:02.082Z,644.85
2022-12-22T00:29:51.564Z,643.65
2022-12-22T00:32:37.463Z,653.10
2022-12-22T00:35:31.996Z,655.08
2022-12-22T00:38:18.344Z,644.22
2022-12-22T00:41:04.757Z,650.25
2022-12-22T00:43:50.837Z,653.83
2022-12-22T00:46:37.870Z,655.10
2022-12-22T00:49:24.013Z,647.72
2022-12-22T00:52:11.095Z,654.22
2022-12-22T00:54:57.313Z,656.35
2022-12-22T00:57:47.088Z,664.83
2022-12-22T01:00:36.957Z,657.08
2022-12-22T01:03:23.723Z,664.63
2022-12-22T01:06:09.856Z,658.53
2022-12-22T01:08:58.827Z,650.72
2022-12-22T01:11:45.688Z,663.75
2022-12-22T01:14:32.537Z,663.83
2022-12-22T01:17:18.699Z,668.47
2022-12-22T01:20:07.663Z,654.47
2022-12-22T01:22:53.983Z,657.80
2022-12-22T01:25:40.260Z,664.78
2022-12-22T01:28:26.506Z,666.20
2022-12-22T01:31:12.623Z,679.88
2022-12-22T01:33:58.623Z,669.13
2022-12-22T01:36:45.161Z,669.17
2022-12-22T01:39:31.278Z,643.85
2022-12-22T01:42:17.265Z,655.60
2022-12-22T01:45:03.615Z,648.47
2022-12-22T01:47:51.543Z,659.85
2022-12-22T01:50:40.677Z,657.67
2022-12-22T01:53:31.272Z,673.80
2022-12-22T01:56:17.353Z,680.08
2022-12-22T01:59:08.859Z,674.60
2022-12-22T02:01:55.350Z,662.38
2022-12-22T02:04:43.095Z,671.08
2022-12-22T02:07:40.844Z,633.53
2022-12-22T02:10:35.423Z,641.33
2022-12-22T02:13:36.668Z,649.30
2022-12-22T02:16:43.003Z,658.72
2022-12-22T02:19:31.893Z,671.05
2022-12-22T02:22:44.604Z,671.75
2022-12-22T02:25:34.600Z,669.97
2022-12-22T02:28:23.384Z,662.55
2022-12-22T02:31:10.253Z,675.72
2022-12-22T02:33:56.697Z,665.55
2022-12-22T02:36:42.453Z,682.55
2022-12-22T02:39:54.652Z,688.05
2022-12-22T02:42:43.552Z,674.88
2022-12-22T02:45:38.507Z,670.58
2022-12-22T02:48:31.055Z,668.20
2022-12-22T02:51:29.997Z,676.50
2022-12-22T02:54:19.842Z,664.17
2022-12-22T02:57:06.245Z,664.17
2022-12-22T02:59:52.427Z,659.50
2022-12-22T03:02:38.665Z,662.22
2022-12-22T03:05:25.407Z,662.40
2022-12-22T03:08:13.864Z,660.90
2022-12-22T03:11:02.319Z,682.10
2022-12-22T03:13:51.483Z,684.90
2022-12-22T03:16:38.020Z,681.17
2022-12-22T03:19:24.025Z,684.80
2022-12-22T03:22:10.230Z,693.33
2022-12-22T03:24:58.330Z,705.60
2022-12-22T03:27:25.996Z,689.80
2022-12-22T03:29:53.605Z,525.88
2022-12-22T03:32:21.289Z,497.42
2022-12-22T03:34:48.996Z,498.33
2022-12-22T03:37:16.546Z,494.50
2022-12-22T03:39:44.278Z,491.13
2022-12-22T03:42:33.408Z,478.75
2022-12-22T03:45:19.725Z,490.70
2022-12-22T03:47:47.493Z,507.10
2022-12-22T03:50:15.920Z,476.30
2022-12-22T03:52:44.102Z,662.30
2022-12-22T03:55:11.772Z,693.72
2022-12-22T03:57:39.531Z,676.53
2022-12-22T04:00:10.048Z,676.45
2022-12-22T04:02:40.573Z,705.70
2022-12-22T04:05:09.304Z,689.33
2022-12-22T04:07:37.121Z,712.53
2022-12-22T04:10:26.381Z,718.25
2022-12-22T04:12:57.119Z,747.30
2022-12-22T04:15:28.627Z,693.10
2022-12-22T04:17:56.589Z,718.30
2022-12-22T04:20:26.964Z,739.35
2022-12-22T04:22:54.952Z,747.65
2022-12-22T04:25:23.072Z,752.83
2022-12-22T04:27:50.980Z,708.25
2022-12-22T04:30:21.055Z,726.53
2022-12-22T04:35:18.669Z,725.28
2022-12-22T04:37:46.609Z,732.53
2022-12-22T04:40:14.659Z,743.67
2022-12-22T04:42:42.267Z,748.17
2022-12-22T04:45:11.151Z,756.08
2022-12-22T04:47:39.131Z,763.28
2022-12-22T04:50:07.156Z,759.63
2022-12-22T04:52:35.224Z,768.25
2022-12-22T04:55:04.139Z,763.67
2022-12-22T04:57:36.830Z,782.95
2022-12-22T05:00:08.137Z,766.97
2022-12-22T05:02:35.836Z,773.10
2022-12-22T05:05:03.841Z,742.55
2022-12-22T05:07:31.627Z,760.50
2022-12-22T05:09:59.290Z,760.38
2022-12-22T05:12:45.633Z,772.40
2022-12-22T05:15:13.854Z,756.45
2022-12-22T05:17:41.488Z,778.17
2022-12-22T05:20:09.635Z,766.17
2022-12-22T05:22:37.339Z,803.15
2022-12-22T05:25:05.118Z,757.75
2022-12-22T05:27:35.390Z,774.72
2022-12-22T05:30:03.079Z,783.28
2022-12-22T05:32:30.759Z,786.72
2022-12-22T05:34:58.394Z,771.90
2022-12-22T05:37:25.967Z,789.97
2022-12-22T05:39:53.636Z,803.08
2022-12-22T05:42:35.973Z,812.28
2022-12-22T05:45:12.506Z,814.53
2022-12-22T05:47:40.636Z,822.72
2022-12-22T05:50:09.669Z,795.42
2022-12-22T05:52:43.796Z,577.95
2022-12-22T05:55:11.803Z,572.65
2022-12-22T05:57:59.352Z,591.97
2022-12-22T06:00:26.909Z,741.70
2022-12-22T06:02:54.700Z,734.30
2022-12-22T06:05:22.576Z,812.72
2022-12-22T06:07:50.259Z,821.75
2022-12-22T06:10:17.985Z,814.00
2022-12-22T06:12:45.577Z,809.67
2022-12-22T06:15:14.179Z,814.88
2022-12-22T06:17:44.873Z,793.03
2022-12-22T06:20:13.348Z,784.53
2022-12-22T06:22:43.777Z,825.60
2022-12-22T06:25:17.659Z,811.35
2022-12-22T06:27:46.321Z,815.80
2022-12-22T06:30:14.186Z,807.42
2022-12-22T06:32:41.848Z,803.33
2022-12-22T06:35:10.196Z,798.92
2022-12-22T06:37:37.870Z,824.47
2022-12-22T06:40:05.714Z,811.72
2022-12-22T06:42:52.301Z,827.85
2022-12-22T06:45:19.827Z,850.17
2022-12-22T06:47:47.554Z,812.58
2022-12-22T06:50:15.951Z,818.10
2022-12-22T06:52:44.790Z,813.78
2022-12-22T06:55:12.726Z,821.47
2022-12-22T06:57:40.332Z,820.25
2022-12-22T07:00:08.374Z,826.30
2022-12-22T07:02:39.381Z,810.28
2022-12-22T07:05:07.766Z,822.78
2022-12-22T07:07:35.674Z,843.22
2022-12-22T07:10:03.211Z,816.97
2022-12-22T07:12:30.995Z,832.05
2022-12-22T07:15:01.370Z,817.30
2022-12-22T07:17:31.418Z,794.50
2022-12-22T07:22:30.746Z,801.38
2022-12-22T07:25:01.860Z,796.67
2022-12-22T07:27:29.954Z,839.88
2022-12-22T07:30:00.134Z,796.95
2022-12-22T07:32:28.331Z,804.53
2022-12-22T07:35:00.088Z,808.13
2022-12-22T07:37:32.628Z,876.65
2022-12-22T07:40:00.251Z,846.60
2022-12-22T07:42:56.864Z,830.60
2022-12-22T07:45:24.902Z,875.75
2022-12-22T07:47:59.739Z,860.47
2022-12-22T07:50:28.943Z,843.55
2022-12-22T07:52:57.400Z,858.08
2022-12-22T07:55:25.774Z,858.15
2022-12-22T07:57:54.219Z,839.28
2022-12-22T08:00:22.595Z,892.33
2022-12-22T08:02:57.759Z,835.72
2022-12-22T08:05:26.466Z,899.70
2022-12-22T08:07:57.041Z,825.83
2022-12-22T08:10:24.754Z,845.28
2022-12-22T08:12:52.531Z,847.42
2022-12-22T08:15:20.286Z,855.45
2022-12-22T08:17:48.136Z,890.00
2022-12-22T08:20:16.063Z,866.08
2022-12-22T08:22:43.943Z,865.00
2022-12-22T08:25:11.567Z,835.50
2022-12-22T08:27:50.412Z,855.17
2022-12-22T08:30:18.218Z,890.78
2022-12-22T08:32:48.070Z,869.30
2022-12-22T08:35:15.592Z,845.20
2022-12-22T08:37:44.453Z,862.33
2022-12-22T08:40:32.512Z,847.83
2022-12-22T08:43:03.363Z,842.75
2022-12-22T08:45:31.003Z,875.28
2022-12-22T08:48:01.503Z,878.97
2022-12-22T08:53:05.503Z,916.80
2022-12-22T08:55:33.381Z,877.08
2022-12-22T08:58:04.114Z,907.33
2022-12-22T09:00:32.031Z,628.35
2022-12-22T09:03:03.017Z,633.55
2022-12-22T09:05:34.172Z,555.28
2022-12-22T09:08:02.751Z,557.42
2022-12-22T09:10:30.505Z,945.15
2022-12-22T09:12:58.245Z,898.30
2022-12-22T09:15:26.184Z,1002.78
2022-12-22T09:17:53.721Z,888.40
2022-12-22T09:20:21.328Z,990.20
2022-12-22T09:22:49.135Z,870.78
2022-12-22T09:25:20.823Z,920.70
2022-12-22T09:27:48.526Z,811.65
2022-12-22T09:30:16.298Z,880.53
2022-12-22T09:32:46.506Z,927.70
2022-12-22T09:35:14.494Z,991.45
2022-12-22T09:37:45.213Z,963.88
2022-12-22T09:40:13.325Z,961.58
2022-12-22T09:42:45.371Z,873.78
2022-12-22T09:45:20.194Z,936.60
2022-12-22T09:47:55.684Z,982.65
2022-12-22T09:50:25.784Z,943.08
2022-12-22T09:55:24.895Z,958.42
2022-12-22T09:57:53.132Z,948.47
2022-12-22T10:00:32.088Z,987.15
2022-12-22T10:03:18.261Z,935.85
2022-12-22T10:05:55.740Z,925.45
2022-12-22T10:08:28.607Z,970.15
2022-12-22T10:10:56.814Z,957.83
2022-12-22T10:13:24.508Z,969.30
2022-12-22T10:15:56.075Z,830.65
2022-12-22T10:18:25.123Z,821.65
2022-12-22T10:21:13.012Z,990.85
2022-12-22T10:23:42.147Z,956.92
2022-12-22T10:26:28.095Z,950.45
2022-12-22T10:28:59.890Z,887.72
2022-12-22T10:31:29.672Z,878.67
2022-12-22T10:33:58.980Z,904.45
2022-12-22T10:36:29.182Z,893.80
2022-12-22T10:41:25.850Z,913.40
2022-12-22T10:43:55.291Z,940.88
2022-12-22T10:46:43.429Z,967.17
2022-12-22T10:49:14.013Z,912.75
2022-12-22T10:51:44.551Z,906.63
2022-12-22T10:54:24.880Z,939.08
2022-12-22T10:57:22.164Z,899.40
2022-12-22T10:59:49.908Z,896.70
2022-12-22T11:02:20.819Z,956.47
2022-12-22T11:04:49.197Z,894.47
2022-12-22T11:07:16.940Z,905.85
2022-12-22T11:09:44.597Z,892.53
2022-12-22T11:12:32.454Z,555.85
2022-12-22T11:15:24.923Z,624.55
2022-12-22T11:18:02.353Z,788.33
2022-12-22T11:20:41.585Z,854.10
2022-12-22T11:23:21.523Z,854.63
2022-12-22T11:26:12.136Z,890.33
2022-12-22T11:29:00.696Z,920.85
2022-12-22T11:31:51.274Z,944.53
2022-12-22T11:34:32.728Z,991.40
2022-12-22T11:37:06.366Z,912.03
2022-12-22T11:39:42.747Z,932.33
2022-12-22T11:42:32.194Z,920.08
2022-12-22T11:45:16.536Z,948.03
2022-12-22T11:47:47.496Z,981.15
2022-12-22T11:50:58.361Z,952.58
2022-12-22T11:53:16.027Z,954.58
2022-12-22T11:55:46.867Z,930.03
2022-12-22T11:58:20.616Z,945.28
2022-12-22T12:01:24.043Z,1026.88
2022-12-22T12:04:04.266Z,1006.83
2022-12-22T12:06:43.151Z,955.63
2022-12-22T12:09:27.704Z,973.08
2022-12-22T12:12:01.709Z,987.58
2022-12-22T12:14:38.056Z,964.65
2022-12-22T12:19:46.258Z,915.95
2022-12-22T12:22:53.250Z,980.72
2022-12-22T12:25:33.051Z,972.47
2022-12-22T12:28:00.993Z,958.40
2022-12-22T12:30:39.021Z,1034.68
2022-12-22T12:33:13.066Z,992.22
2022-12-22T12:35:46.782Z,951.38
2022-12-22T12:38:56.748Z,962.40
2022-12-22T12:41:24.669Z,955.83
2022-12-22T12:43:56.125Z,940.08
2022-12-22T12:46:41.807Z,582.78
2022-12-22T12:49:32.763Z,567.58
2022-12-22T12:52:04.093Z,876.83
2022-12-22T12:54:34.521Z,986.40
2022-12-22T12:57:08.098Z,962.90
2022-12-22T12:59:41.929Z,983.88
2022-12-22T13:02:42.330Z,896.42
2022-12-22T13:05:13.093Z,952.15
2022-12-22T13:07:59.801Z,904.92
2022-12-22T13:10:27.788Z,1004.63
2022-12-22T13:12:55.610Z,1015.63
2022-12-22T13:15:33.759Z,990.13
2022-12-22T13:18:05.911Z,965.70
2022-12-22T13:20:35.511Z,985.38
2022-12-22T13:23:11.653Z,958.95
2022-12-22T13:25:58.975Z,1008.05
2022-12-22T13:28:27.851Z,1091.75
2022-12-22T13:31:01.079Z,996.45
2022-12-22T13:33:31.007Z,996.72
2022-12-22T13:35:59.579Z,996.67
2022-12-22T13:38:33.291Z,1125.93
2022-12-22T13:41:03.814Z,995.42
2022-12-22T13:43:36.392Z,652.05
2022-12-22T13:46:04.525Z,423.38
2022-12-22T13:48:45.127Z,389.73
2022-12-22T13:51:29.296Z,241.98
2022-12-22T13:54:19.354Z,37.13
2022-12-22T13:56:57.000Z,425.73
2022-12-22T13:59:41.307Z,51.20
2022-12-22T14:02:12.741Z,395.63
2022-12-22T14:04:43.029Z,20.20
2022-12-22T14:07:20.969Z,26.08
2022-12-22T14:09:56.467Z,20.13
2022-12-22T14:12:27.557Z,24.92
2022-12-22T14:15:01.322Z,18.77
2022-12-22T14:17:37.131Z,27.50
2022-12-22T14:20:29.760Z,13.23
2022-12-22T14:23:08.590Z,311.55
2022-12-22T14:25:42.349Z,35.72
2022-12-22T14:28:22.265Z,321.17
2022-12-22T14:30:56.667Z,41.42
2022-12-22T14:33:31.879Z,371.80
2022-12-22T14:36:18.257Z,355.20
2022-12-22T14:38:54.813Z,332.05
2022-12-22T14:41:43.336Z,375.33
2022-12-22T14:44:30.637Z,400.52
2022-12-22T14:47:04.272Z,394.67
2022-12-22T14:49:35.856Z,375.88
2022-12-22T14:52:14.573Z,379.27
2022-12-22T14:54:49.501Z,335.50
2022-12-22T14:57:22.315Z,21.52
2022-12-22T15:00:08.708Z,12.98
2022-12-22T15:02:40.430Z,23.23
2022-12-22T15:05:16.151Z,185.55
2022-12-22T15:08:08.312Z,39.72
2022-12-22T15:10:44.604Z,287.88
2022-12-22T15:13:24.154Z,263.38
2022-12-22T15:16:13.741Z,305.20
2022-12-22T15:18:41.690Z,251.30
2022-12-22T15:21:12.794Z,256.95
2022-12-22T15:23:43.280Z,231.95
2022-12-22T15:26:13.394Z,228.75
2022-12-22T15:31:16.033Z,226.52
2022-12-22T15:33:51.268Z,241.82
2022-12-22T15:36:19.008Z,253.38
2022-12-22T15:38:52.117Z,279.10
2022-12-22T15:41:22.013Z,261.92
2022-12-22T15:43:57.688Z,259.83
2022-12-22T15:46:25.950Z,299.17
2022-12-22T15:48:53.755Z,263.08
2022-12-22T15:51:30.660Z,292.20
2022-12-22T15:54:01.828Z,280.70
2022-12-22T15:56:31.489Z,264.88
2022-12-22T15:58:59.204Z,278.15
2022-12-22T16:01:27.401Z,260.65
2022-12-22T16:03:57.508Z,242.93
2022-12-22T16:06:27.596Z,245.95
2022-12-22T16:08:59.012Z,251.30
2022-12-22T16:11:29.036Z,242.88
2022-12-22T16:13:59.857Z,241.90
2022-12-22T16:16:27.522Z,273.70
2022-12-22T16:19:00.342Z,282.23
2022-12-22T16:21:31.152Z,280.02
2022-12-22T16:24:01.538Z,243.30
2022-12-22T16:26:32.187Z,304.77
2022-12-22T16:28:59.928Z,310.42
2022-12-22T16:31:27.540Z,352.33
2022-12-22T16:33:57.837Z,333.88
2022-12-22T16:36:25.558Z,318.25
2022-12-22T16:38:55.687Z,264.98
2022-12-22T16:44:03.789Z,279.48
2022-12-22T16:46:39.150Z,298.15
2022-12-22T16:49:09.398Z,337.90
2022-12-22T16:54:14.446Z,328.48
2022-12-22T16:56:43.076Z,346.25
2022-12-22T16:59:10.919Z,315.63
2022-12-22T17:01:47.569Z,287.75
2022-12-22T17:04:21.850Z,327.77
2022-12-22T17:06:50.938Z,365.48
2022-12-22T17:09:25.230Z,367.30
2022-12-22T17:11:54.147Z,363.05
2022-12-22T17:14:29.193Z,323.42
2022-12-22T17:16:59.604Z,415.38
2022-12-22T17:19:27.559Z,376.85
2022-12-22T17:21:59.093Z,413.27
2022-12-22T17:24:32.183Z,402.58
2022-12-22T17:27:06.084Z,410.88
2022-12-22T17:29:35.224Z,412.20
2022-12-22T17:32:03.936Z,332.00
2022-12-22T17:34:32.474Z,338.67
2022-12-22T17:37:08.967Z,389.42
2022-12-22T17:39:38.689Z,378.65
2022-12-22T17:42:19.686Z,403.13
2022-12-22T17:44:47.339Z,401.10
2022-12-22T17:47:16.903Z,389.42
2022-12-22T17:49:44.579Z,371.55
2022-12-22T17:52:22.338Z,375.20
2022-12-22T17:54:53.223Z,374.25
2022-12-22T17:57:28.827Z,369.95
2022-12-22T17:59:58.850Z,338.35
2022-12-22T18:02:26.533Z,324.70
2022-12-22T18:04:59.804Z,340.63
2022-12-22T18:07:27.478Z,328.88
2022-12-22T18:10:00.164Z,338.80
2022-12-22T18:12:27.560Z,343.10
2022-12-22T18:14:55.402Z,361.35
2022-12-22T18:17:33.341Z,352.30
2022-12-22T18:20:02.307Z,333.65
2022-12-22T18:22:30.259Z,322.00
2022-12-22T18:24:58.688Z,3.33
2022-12-22T18:27:26.174Z,353.80
2022-12-22T18:29:53.458Z,349.30
2022-12-22T18:32:27.399Z,399.08
2022-12-22T18:34:58.641Z,303.63
2022-12-22T18:37:26.243Z,3.80
2022-12-22T18:39:53.781Z,339.88
2022-12-22T18:42:22.303Z,319.42
2022-12-22T18:44:56.253Z,312.58
2022-12-22T18:47:26.776Z,3.72
2022-12-22T18:49:55.275Z,343.88
2022-12-22T18:52:26.244Z,330.55
2022-12-22T18:54:54.008Z,316.70
2022-12-22T18:57:27.913Z,305.38
2022-12-22T18:59:55.766Z,293.50
2022-12-22T19:02:24.664Z,2.83
2022-12-22T19:04:54.906Z,238.43
2022-12-22T19:09:56.613Z,310.67
2022-12-22T19:12:27.933Z,352.75
2022-12-22T19:15:03.625Z,344.48
2022-12-22T19:17:31.189Z,321.95
2022-12-22T19:20:01.774Z,340.67
2022-12-22T19:22:29.377Z,361.85
2022-12-22T19:24:58.984Z,373.98
2022-12-22T19:27:30.778Z,406.90
2022-12-22T19:30:03.939Z,399.45
2022-12-22T19:32:38.113Z,395.30
2022-12-22T19:35:14.120Z,405.17
2022-12-22T19:37:46.677Z,403.45
2022-12-22T19:40:21.422Z,364.65
2022-12-22T19:42:54.464Z,349.35
2022-12-22T19:45:37.037Z,350.90
2022-12-22T19:48:11.042Z,314.42
2022-12-22T19:50:39.386Z,348.35
2022-12-22T19:53:10.605Z,358.33
2022-12-22T19:55:44.998Z,371.83
2022-12-22T19:58:24.532Z,373.90
2022-12-22T20:00:53.185Z,354.40
2022-12-22T20:03:25.718Z,348.33
2022-12-22T20:05:56.678Z,344.00
2022-12-22T20:08:24.196Z,364.58
2022-12-22T20:10:58.393Z,376.33
2022-12-22T20:13:32.854Z,2.65
2022-12-22T20:16:00.497Z,375.70
2022-12-22T20:18:30.398Z,3.42
2022-12-22T20:23:37.760Z,2.92
2022-12-22T20:26:14.178Z,2.53
2022-12-22T20:28:45.162Z,4.25
2022-12-22T20:31:20.622Z,3.83
2022-12-22T20:33:48.771Z,3.85
2022-12-22T20:36:32.010Z,4.13
2022-12-22T20:39:02.891Z,2.20
2022-12-22T20:41:30.563Z,2.50
2022-12-22T20:44:00.402Z,2.33
2022-12-22T20:46:30.664Z,2.83
2022-12-22T20:49:05.367Z,3.17
2022-12-22T20:51:36.231Z,3.38
2022-12-22T20:54:03.879Z,2.40
2022-12-22T20:56:31.521Z,2.17
2022-12-22T20:59:07.488Z,3.33
2022-12-22T21:01:35.283Z,2.78
2022-12-22T21:04:05.444Z,2.30
2022-12-22T21:06:38.955Z,3.20
2022-12-22T21:09:11.377Z,1.85
2022-12-22T21:11:38.935Z,3.63
2022-12-22T21:14:06.711Z,2.63
2022-12-22T21:16:36.803Z,294.00
2022-12-22T21:21:33.451Z,313.73
2022-12-22T21:24:01.138Z,336.33
2022-12-22T21:26:36.941Z,334.13
2022-12-22T21:29:10.435Z,343.52
2022-12-22T21:31:37.973Z,346.27
2022-12-22T21:34:08.445Z,354.67
2022-12-22T21:36:42.395Z,341.77
2022-12-22T21:39:31.633Z,344.65
2022-12-22T21:42:05.190Z,326.77
2022-12-22T21:44:37.563Z,328.67
2022-12-22T21:47:07.768Z,350.98
2022-12-22T21:52:05.897Z,337.77
2022-12-22T21:54:33.324Z,330.33
2022-12-22T21:57:00.835Z,331.27
2022-12-22T21:59:28.437Z,4.05
2022-12-22T22:01:57.399Z,2.05
2022-12-22T22:04:25.391Z,2.67
2022-12-22T22:06:53.023Z,2.88
2022-12-22T22:09:20.521Z,183.73
2022-12-22T22:12:08.588Z,2.50
2022-12-22T22:14:47.711Z,2.63
2022-12-22T22:17:15.560Z,255.55
2022-12-22T22:19:45.343Z,264.85
2022-12-22T22:22:15.267Z,3.63
2022-12-22T22:24:45.920Z,260.52
2022-12-22T22:27:15.952Z,275.45
2022-12-22T22:29:43.606Z,300.75
2022-12-22T22:32:11.379Z,290.65
2022-12-22T22:34:41.264Z,312.67
2022-12-22T22:37:09.045Z,303.83
2022-12-22T22:39:36.269Z,322.70
2022-12-22T22:42:03.950Z,317.83
2022-12-22T22:44:31.334Z,238.85
2022-12-22T22:46:59.111Z,143.65
2022-12-22T22:49:30.193Z,281.45
2022-12-22T22:51:58.457Z,287.15
2022-12-22T22:54:29.265Z,289.05
2022-12-22T22:56:59.563Z,314.30
2022-12-22T22:59:31.695Z,328.00
2022-12-22T23:01:59.484Z,317.13
2022-12-22T23:04:30.877Z,368.45
2022-12-22T23:07:01.240Z,240.18
2022-12-22T23:09:28.916Z,310.25
2022-12-22T23:11:59.040Z,323.75
2022-12-22T23:16:56.533Z,352.88
2022-12-22T23:19:27.992Z,334.63
2022-12-22T23:21:55.667Z,331.65
2022-12-22T23:24:26.741Z,370.30
2022-12-22T23:26:58.504Z,311.92
2022-12-22T23:29:29.231Z,307.08
2022-12-22T23:32:00.115Z,323.98
2022-12-22T23:34:27.853Z,292.95
2022-12-22T23:36:58.346Z,283.05
2022-12-22T23:39:25.874Z,331.38
2022-12-22T23:41:53.040Z,310.40
2022-12-22T23:44:23.028Z,329.33
2022-12-22T23:46:53.362Z,326.25
2022-12-22T23:49:21.188Z,339.13
2022-12-22T23:51:49.342Z,306.90
2022-12-22T23:54:18.826Z,317.23
2022-12-22T23:56:48.917Z,297.45
